createdAt,value
2023-05-05T00:00:19.592Z,18.9339
2023-05-05T00:01:20.669Z,18.9120
2023-05-05T00:02:21.739Z,19.1153
2023-05-05T00:03:22.900Z,19.1934
2023-05-05T00:04:23.694Z,19.1473
2023-05-05T00:05:24.762Z,19.0626
2023-05-05T00:06:25.784Z,19.0209
2023-05-05T00:07:26.836Z,19.0362
2023-05-05T00:08:27.851Z,18.9843
2023-05-05T00:09:28.942Z,18.9277
2023-05-05T00:10:29.967Z,18.9040
2023-05-05T00:11:30.974Z,18.8594
2023-05-05T00:12:32.032Z,18.7586
2023-05-05T00:13:32.996Z,18.7085
2023-05-05T00:14:34.033Z,18.6792
2023-05-05T00:15:35.091Z,18.7201
2023-05-05T00:16:36.185Z,18.7062
2023-05-05T00:17:37.201Z,18.6387
2023-05-05T00:18:38.166Z,18.5697
2023-05-05T00:19:39.233Z,18.5092
2023-05-05T00:20:40.240Z,18.4884
2023-05-05T00:21:41.312Z,18.4513
2023-05-05T00:22:42.329Z,18.4518
2023-05-05T00:23:43.376Z,18.5443
2023-05-05T00:24:44.408Z,18.5515
2023-05-05T00:25:45.456Z,18.5618
2023-05-05T00:26:46.469Z,18.5275
2023-05-05T00:27:47.529Z,18.4745
2023-05-05T00:28:48.504Z,18.4754
2023-05-05T00:29:49.567Z,18.4984
2023-05-05T00:30:50.608Z,18.4565
2023-05-05T00:31:51.632Z,18.4062
2023-05-05T00:32:52.690Z,18.3560
2023-05-05T00:33:53.732Z,18.2912
2023-05-05T00:34:54.716Z,18.2609
2023-05-05T00:35:55.812Z,18.3180
2023-05-05T00:36:56.798Z,18.3393
2023-05-05T00:37:57.873Z,18.3052
2023-05-05T00:38:58.925Z,18.2984
2023-05-05T00:39:59.936Z,18.4936
2023-05-05T00:41:00.912Z,18.4565
2023-05-05T00:42:01.995Z,18.3599
2023-05-05T00:43:03.011Z,18.2898
2023-05-05T00:44:04.082Z,18.3019
2023-05-05T00:45:05.055Z,18.3102
2023-05-05T00:46:06.137Z,18.3252
2023-05-05T00:47:07.126Z,18.3330
2023-05-05T00:48:08.224Z,18.3592
2023-05-05T00:49:09.237Z,18.3654
2023-05-05T00:50:10.270Z,18.3058
2023-05-05T00:51:11.276Z,18.3495
2023-05-05T00:52:21.587Z,18.3038
2023-05-05T00:53:22.954Z,18.3326
2023-05-05T00:54:23.998Z,18.2884
2023-05-05T00:55:24.896Z,18.2339
2023-05-05T00:56:25.967Z,18.2247
2023-05-05T00:57:26.978Z,18.1421
2023-05-05T00:58:28.132Z,18.1234
2023-05-05T00:59:29.096Z,18.1151
2023-05-05T01:00:30.109Z,18.2207
2023-05-05T01:01:31.183Z,18.0860
2023-05-05T01:02:32.276Z,18.0307
2023-05-05T01:03:33.432Z,18.1144
2023-05-05T01:04:34.297Z,18.3183
2023-05-05T01:05:35.309Z,18.4639
2023-05-05T01:06:36.316Z,18.4988
2023-05-05T01:07:37.390Z,18.5690
2023-05-05T01:08:38.421Z,18.1382
2023-05-05T01:09:39.471Z,18.0112
2023-05-05T01:10:40.601Z,18.1456
2023-05-05T01:11:41.630Z,18.2077
2023-05-05T01:12:42.652Z,18.1073
2023-05-05T01:13:43.693Z,18.1269
2023-05-05T01:14:44.734Z,18.3063
2023-05-05T01:15:45.711Z,18.3861
2023-05-05T01:16:46.755Z,18.1601
2023-05-05T01:17:47.813Z,17.9932
2023-05-05T01:18:48.879Z,17.9378
2023-05-05T01:19:49.926Z,17.9769
2023-05-05T01:20:50.900Z,17.9765
2023-05-05T01:21:51.953Z,17.9061
2023-05-05T01:22:52.953Z,17.8328
2023-05-05T01:23:54.013Z,17.7655
2023-05-05T01:24:55.175Z,17.7181
2023-05-05T01:25:56.109Z,17.5739
2023-05-05T01:26:57.148Z,17.2451
2023-05-05T01:27:58.135Z,17.2070
2023-05-05T01:28:59.274Z,17.2516
2023-05-05T01:30:00.257Z,17.2681
2023-05-05T01:31:01.333Z,17.1831
2023-05-05T01:32:02.328Z,17.2145
2023-05-05T01:33:03.313Z,17.4489
2023-05-05T01:34:04.418Z,17.5298
2023-05-05T01:35:05.417Z,17.6159
2023-05-05T01:36:06.433Z,17.6748
2023-05-05T01:37:07.521Z,17.6768
2023-05-05T01:38:08.493Z,17.6614
2023-05-05T01:39:09.614Z,17.6755
2023-05-05T01:40:10.617Z,17.6731
2023-05-05T01:41:11.611Z,17.7414
2023-05-05T01:42:12.610Z,17.7145
2023-05-05T01:43:13.694Z,17.7278
2023-05-05T01:44:14.774Z,17.8382
2023-05-05T01:45:15.849Z,17.8428
2023-05-05T01:46:16.867Z,17.8278
2023-05-05T01:47:17.819Z,17.9323
2023-05-05T01:48:18.882Z,17.9076
2023-05-05T01:49:19.995Z,17.6395
2023-05-05T01:50:21.002Z,17.5688
2023-05-05T01:51:21.973Z,17.6834
2023-05-05T01:52:23.026Z,17.6509
2023-05-05T01:53:24.018Z,17.5793
2023-05-05T01:54:25.131Z,17.6706
2023-05-05T01:55:26.172Z,17.7396
2023-05-05T01:56:27.223Z,17.7121
2023-05-05T01:57:28.179Z,17.7138
2023-05-05T01:58:29.224Z,17.9685
2023-05-05T01:59:30.302Z,18.2250
2023-05-05T02:00:31.400Z,18.0947
2023-05-05T02:01:32.323Z,17.9438
2023-05-05T02:02:33.413Z,17.8742
2023-05-05T02:03:34.404Z,17.8577
2023-05-05T02:04:35.463Z,17.8297
2023-05-05T02:05:36.490Z,17.8152
2023-05-05T02:06:37.491Z,17.8035
2023-05-05T02:07:38.550Z,17.7382
2023-05-05T02:08:39.579Z,17.6688
2023-05-05T02:09:40.677Z,17.6370
2023-05-05T02:10:41.706Z,17.6430
2023-05-05T02:11:42.665Z,17.6923
2023-05-05T02:12:43.720Z,17.8593
2023-05-05T02:13:44.893Z,17.9107
2023-05-05T02:14:45.909Z,17.7063
2023-05-05T02:15:46.959Z,17.5361
2023-05-05T02:16:47.868Z,17.5473
2023-05-05T02:17:48.928Z,17.7357
2023-05-05T02:18:49.953Z,17.6822
2023-05-05T02:19:51.035Z,17.5309
2023-05-05T02:20:52.080Z,17.4569
2023-05-05T02:21:53.073Z,17.4583
2023-05-05T02:22:54.132Z,17.3327
2023-05-05T02:23:55.115Z,17.3103
2023-05-05T02:24:56.233Z,17.3431
2023-05-05T02:25:57.233Z,17.3568
2023-05-05T02:26:58.219Z,17.5296
2023-05-05T02:27:59.295Z,17.5930
2023-05-05T02:29:00.298Z,17.4902
2023-05-05T02:30:01.400Z,17.3641
2023-05-05T02:31:02.466Z,17.3539
2023-05-05T02:32:03.338Z,17.5097
2023-05-05T02:33:04.513Z,17.5736
2023-05-05T02:34:05.473Z,17.6376
2023-05-05T02:35:06.620Z,17.6743
2023-05-05T02:36:07.623Z,17.6587
2023-05-05T02:37:08.573Z,17.6078
2023-05-05T02:38:09.627Z,17.5800
2023-05-05T02:39:10.660Z,17.4759
2023-05-05T02:40:11.786Z,17.5174
2023-05-05T02:41:12.797Z,17.5801
2023-05-05T02:42:13.793Z,17.5866
2023-05-05T02:43:14.823Z,17.6132
2023-05-05T02:44:15.841Z,17.5782
2023-05-05T02:45:16.914Z,17.4947
2023-05-05T02:46:18.011Z,17.3806
2023-05-05T02:47:18.949Z,17.5021
2023-05-05T02:48:20.080Z,17.4246
2023-05-05T02:49:21.016Z,17.4659
2023-05-05T02:50:22.185Z,17.4681
2023-05-05T02:51:23.131Z,17.4180
2023-05-05T02:52:24.218Z,17.2863
2023-05-05T02:53:25.135Z,17.2510
2023-05-05T02:54:26.233Z,17.2353
2023-05-05T02:55:27.276Z,17.0531
2023-05-05T02:56:28.354Z,17.1092
2023-05-05T02:57:29.309Z,17.2011
2023-05-05T02:58:30.351Z,17.3213
2023-05-05T02:59:31.373Z,17.4291
2023-05-05T03:00:32.456Z,17.4408
2023-05-05T03:01:33.525Z,17.0869
2023-05-05T03:02:34.518Z,17.0358
2023-05-05T03:03:35.609Z,17.0130
2023-05-05T03:04:36.566Z,16.9189
2023-05-05T03:05:37.692Z,16.9614
2023-05-05T03:06:38.654Z,17.0298
2023-05-05T03:07:39.653Z,17.1218
2023-05-05T03:08:40.774Z,17.0545
2023-05-05T03:09:41.712Z,17.1733
2023-05-05T03:10:42.815Z,17.3812
2023-05-05T03:11:43.867Z,17.5729
2023-05-05T03:12:44.895Z,17.7155
2023-05-05T03:13:45.914Z,17.7707
2023-05-05T03:14:46.898Z,17.7564
2023-05-05T03:15:47.996Z,17.5837
2023-05-05T03:16:49.015Z,17.3081
2023-05-05T03:17:50.021Z,17.1789
2023-05-05T03:18:51.102Z,17.0688
2023-05-05T03:19:52.080Z,16.9898
2023-05-05T03:20:53.134Z,16.9271
2023-05-05T03:21:54.275Z,16.8153
2023-05-05T03:22:55.241Z,16.8438
2023-05-05T03:23:56.293Z,16.8068
2023-05-05T03:24:57.295Z,16.7071
2023-05-05T03:25:58.336Z,16.8014
2023-05-05T03:26:59.378Z,16.9419
2023-05-05T03:28:00.352Z,17.0253
2023-05-05T03:29:01.370Z,17.0546
2023-05-05T03:30:02.448Z,17.0537
2023-05-05T03:31:03.495Z,16.9734
2023-05-05T03:32:04.656Z,17.0011
2023-05-05T03:33:05.565Z,16.9360
2023-05-05T03:34:06.575Z,16.8839
2023-05-05T03:35:07.587Z,16.9416
2023-05-05T03:36:08.675Z,17.0208
2023-05-05T03:37:09.782Z,17.0689
2023-05-05T03:38:10.771Z,17.0460
2023-05-05T03:39:11.741Z,16.9781
2023-05-05T03:40:12.783Z,17.0029
2023-05-05T03:41:13.851Z,17.0843
2023-05-05T03:42:14.931Z,17.1408
2023-05-05T03:43:15.848Z,17.3672
2023-05-05T03:44:16.953Z,17.5057
2023-05-05T03:45:17.991Z,17.4144
2023-05-05T03:46:19.139Z,17.4035
2023-05-05T03:47:20.081Z,17.4054
2023-05-05T03:48:21.033Z,17.3789
2023-05-05T03:49:22.063Z,17.3355
2023-05-05T03:50:23.185Z,17.3861
2023-05-05T03:51:24.172Z,17.4526
2023-05-05T03:52:25.208Z,17.5954
2023-05-05T03:53:26.172Z,17.6051
2023-05-05T03:54:27.230Z,17.5016
2023-05-05T03:55:28.337Z,17.2240
2023-05-05T03:56:29.428Z,17.0245
2023-05-05T03:57:30.431Z,16.9816
2023-05-05T03:58:31.391Z,16.9287
2023-05-05T03:59:32.443Z,16.9154
2023-05-05T04:00:33.453Z,16.9157
2023-05-05T04:01:34.537Z,16.9180
2023-05-05T04:02:35.627Z,16.9533
2023-05-05T04:03:36.657Z,16.9772
2023-05-05T04:04:37.618Z,17.0124
2023-05-05T04:05:38.628Z,17.0595
2023-05-05T04:06:39.757Z,17.0774
2023-05-05T04:07:40.739Z,17.0808
2023-05-05T04:08:41.790Z,17.1644
2023-05-05T04:09:42.793Z,17.2871
2023-05-05T04:10:43.836Z,17.3158
2023-05-05T04:11:44.947Z,17.2916
2023-05-05T04:12:46.003Z,17.2207
2023-05-05T04:13:46.959Z,17.1698
2023-05-05T04:14:48.000Z,17.1124
2023-05-05T04:15:49.050Z,17.0980
2023-05-05T04:16:50.097Z,17.1225
2023-05-05T04:17:51.194Z,16.9469
2023-05-05T04:18:52.157Z,16.9653
2023-05-05T04:19:53.137Z,17.0040
2023-05-05T04:20:54.219Z,16.9683
2023-05-05T04:21:55.281Z,16.8379
2023-05-05T04:22:56.389Z,16.7725
2023-05-05T04:23:57.287Z,16.6504
2023-05-05T04:24:58.353Z,16.5129
2023-05-05T04:25:59.353Z,16.5001
2023-05-05T04:27:00.505Z,16.5924
2023-05-05T04:28:01.605Z,16.6036
2023-05-05T04:29:02.526Z,16.6033
2023-05-05T04:30:03.515Z,16.7965
2023-05-05T04:31:04.563Z,16.8872
2023-05-05T04:32:05.651Z,16.7619
2023-05-05T04:33:06.674Z,16.5273
2023-05-05T04:34:07.672Z,16.3577
2023-05-05T04:35:08.684Z,16.3677
2023-05-05T04:36:09.735Z,16.3655
2023-05-05T04:37:10.853Z,16.3973
2023-05-05T04:38:11.870Z,16.4729
2023-05-05T04:39:12.837Z,16.5215
2023-05-05T04:40:13.902Z,16.4791
2023-05-05T04:41:14.939Z,16.4741
2023-05-05T04:42:15.995Z,16.4868
2023-05-05T04:43:17.007Z,16.3060
2023-05-05T04:44:17.976Z,16.1899
2023-05-05T04:45:19.072Z,16.1744
2023-05-05T04:46:20.200Z,16.0818
2023-05-05T04:47:21.172Z,16.0253
2023-05-05T04:48:22.194Z,15.9816
2023-05-05T04:49:23.201Z,15.9053
2023-05-05T04:50:24.205Z,15.8278
2023-05-05T04:51:25.248Z,15.8134
2023-05-05T04:52:26.334Z,15.8318
2023-05-05T04:53:27.401Z,15.8230
2023-05-05T04:54:28.407Z,15.9167
2023-05-05T04:55:29.399Z,16.0374
2023-05-05T04:56:30.447Z,16.0919
2023-05-05T04:57:31.518Z,16.2011
2023-05-05T04:58:32.562Z,16.2274
2023-05-05T04:59:33.558Z,16.2487
2023-05-05T05:00:34.622Z,16.2728
2023-05-05T05:01:37.730Z,16.2781
2023-05-05T05:02:36.727Z,16.2440
2023-05-05T05:03:39.156Z,16.2561
2023-05-05T05:04:38.765Z,16.1617
2023-05-05T05:05:39.757Z,16.1844
2023-05-05T05:06:40.797Z,16.2929
2023-05-05T05:07:41.878Z,16.3495
2023-05-05T05:08:42.910Z,16.4009
2023-05-05T05:09:43.956Z,16.4305
2023-05-05T05:10:44.999Z,16.4738
2023-05-05T05:11:46.030Z,16.5908
2023-05-05T05:12:47.032Z,16.7850
2023-05-05T05:13:48.062Z,16.8180
2023-05-05T05:14:49.067Z,16.8036
2023-05-05T05:15:50.107Z,16.8171
2023-05-05T05:16:51.225Z,16.8263
2023-05-05T05:17:52.181Z,16.8290
2023-05-05T05:18:53.213Z,16.8216
2023-05-05T05:19:54.245Z,16.8029
2023-05-05T05:20:55.245Z,16.7225
2023-05-05T05:21:56.289Z,16.7800
2023-05-05T05:22:57.373Z,16.8428
2023-05-05T05:23:58.402Z,16.7939
2023-05-05T05:24:59.408Z,16.6672
2023-05-05T05:26:00.421Z,16.7331
2023-05-05T05:27:01.452Z,16.7387
2023-05-05T05:28:10.164Z,16.7763
2023-05-05T05:29:03.630Z,16.5390
2023-05-05T05:30:04.592Z,16.4138
2023-05-05T05:31:05.606Z,16.4373
2023-05-05T05:32:06.814Z,16.4179
2023-05-05T05:33:07.855Z,16.3906
2023-05-05T05:34:09.767Z,16.2893
2023-05-05T05:35:09.769Z,16.3432
2023-05-05T05:36:10.803Z,16.2621
2023-05-05T05:37:11.843Z,16.5065
2023-05-05T05:38:12.918Z,16.7735
2023-05-05T05:39:14.104Z,16.6882
2023-05-05T05:40:14.945Z,16.6738
2023-05-05T05:41:15.963Z,16.6634
2023-05-05T05:42:17.018Z,16.7193
2023-05-05T05:43:18.055Z,16.6864
2023-05-05T05:44:19.194Z,16.6679
2023-05-05T05:45:20.115Z,16.6678
2023-05-05T05:46:21.217Z,16.7103
2023-05-05T05:47:22.182Z,16.8085
2023-05-05T05:48:23.270Z,16.8177
2023-05-05T05:49:24.338Z,16.8782
2023-05-05T05:50:25.323Z,16.9556
2023-05-05T05:51:26.322Z,16.9532
2023-05-05T05:52:27.383Z,17.1449
2023-05-05T05:53:28.430Z,17.4780
2023-05-05T05:54:29.443Z,17.5591
2023-05-05T05:55:30.513Z,17.4844
2023-05-05T05:56:31.533Z,17.4738
2023-05-05T05:57:32.563Z,17.5580
2023-05-05T05:58:33.587Z,17.5359
2023-05-05T05:59:34.658Z,17.4593
2023-05-05T06:00:35.616Z,17.5565
2023-05-05T06:01:36.694Z,17.6024
2023-05-05T06:02:37.791Z,17.7739
2023-05-05T06:03:38.869Z,17.8802
2023-05-05T06:04:39.880Z,18.0034
2023-05-05T06:05:40.844Z,18.0522
2023-05-05T06:06:41.824Z,18.0570
2023-05-05T06:07:42.927Z,18.1384
2023-05-05T06:08:43.950Z,18.2130
2023-05-05T06:09:44.984Z,17.9778
2023-05-05T06:10:46.001Z,17.7681
2023-05-05T06:11:47.036Z,17.6681
2023-05-05T06:12:48.084Z,17.5846
2023-05-05T06:13:49.083Z,17.5160
2023-05-05T06:14:50.154Z,17.4880
2023-05-05T06:15:51.240Z,17.2915
2023-05-05T06:16:52.228Z,17.3174
2023-05-05T06:17:53.311Z,17.4669
2023-05-05T06:18:54.284Z,17.6136
2023-05-05T06:19:55.354Z,17.7044
2023-05-05T06:20:56.361Z,17.9657
2023-05-05T06:21:57.419Z,18.2012
2023-05-05T06:22:58.452Z,18.4891
2023-05-05T06:23:59.475Z,18.7740
2023-05-05T06:25:00.502Z,18.8966
2023-05-05T06:26:01.604Z,19.0312
2023-05-05T06:27:02.600Z,19.0956
2023-05-05T06:28:03.611Z,19.0865
2023-05-05T06:29:04.614Z,19.0257
2023-05-05T06:30:05.937Z,19.2446
2023-05-05T06:31:06.747Z,19.2982
2023-05-05T06:32:07.784Z,19.2282
2023-05-05T06:33:08.820Z,19.2633
2023-05-05T06:34:09.782Z,19.1829
2023-05-05T06:35:10.854Z,18.9741
2023-05-05T06:36:11.916Z,19.0803
2023-05-05T06:37:12.923Z,19.2706
2023-05-05T06:38:14.148Z,19.3105
2023-05-05T06:39:16.169Z,19.5986
2023-05-05T06:40:16.125Z,19.6616
2023-05-05T06:41:17.148Z,19.6008
2023-05-05T06:42:18.230Z,19.6749
2023-05-05T06:43:19.265Z,19.6781
2023-05-05T06:44:20.302Z,19.4097
2023-05-05T06:45:21.287Z,19.1063
2023-05-05T06:46:22.407Z,18.7437
2023-05-05T06:47:23.404Z,18.5145
2023-05-05T06:48:24.447Z,18.5538
2023-05-05T06:49:25.464Z,18.4918
2023-05-05T06:50:26.463Z,18.4046
2023-05-05T06:51:27.502Z,18.4182
2023-05-05T06:52:28.614Z,18.5823
2023-05-05T06:53:29.576Z,18.8150
2023-05-05T06:54:30.593Z,18.9675
2023-05-05T06:55:31.731Z,18.8963
2023-05-05T06:56:32.701Z,18.6063
2023-05-05T06:57:33.746Z,18.4462
2023-05-05T06:58:34.841Z,18.5940
2023-05-05T06:59:35.791Z,18.6049
2023-05-05T07:00:36.894Z,18.7066
2023-05-05T07:01:37.858Z,18.7794
2023-05-05T07:02:39.055Z,18.8055
2023-05-05T07:03:40.020Z,18.8571
2023-05-05T07:04:41.096Z,18.8806
2023-05-05T07:05:42.007Z,18.9819
2023-05-05T07:06:43.140Z,19.2839
2023-05-05T07:07:44.114Z,19.4844
2023-05-05T07:08:45.226Z,19.7150
2023-05-05T07:09:46.195Z,19.7751
2023-05-05T07:10:47.328Z,19.2673
2023-05-05T07:11:48.268Z,19.0786
2023-05-05T07:12:49.387Z,19.4437
2023-05-05T07:13:50.371Z,19.6348
2023-05-05T07:14:51.417Z,19.3345
2023-05-05T07:15:52.390Z,18.8926
2023-05-05T07:16:53.590Z,18.6743
2023-05-05T07:17:54.547Z,18.9530
2023-05-05T07:18:55.538Z,19.1998
2023-05-05T07:19:56.579Z,19.2429
2023-05-05T07:20:57.542Z,19.3224
2023-05-05T07:21:58.596Z,19.4238
2023-05-05T07:22:59.621Z,19.5212
2023-05-05T07:24:00.714Z,19.6817
2023-05-05T07:25:01.707Z,19.7497
2023-05-05T07:26:02.850Z,19.4758
2023-05-05T07:27:03.740Z,19.4198
2023-05-05T07:28:04.841Z,19.4247
2023-05-05T07:29:05.873Z,19.3533
2023-05-05T07:30:11.211Z,19.2388
2023-05-05T07:31:07.889Z,19.3963
2023-05-05T07:32:09.024Z,19.5771
2023-05-05T07:33:10.087Z,19.5873
2023-05-05T07:34:11.058Z,19.4258
2023-05-05T07:35:12.127Z,19.3670
2023-05-05T07:36:13.151Z,19.4896
2023-05-05T07:37:14.106Z,19.6241
2023-05-05T07:38:15.165Z,19.8455
2023-05-05T07:39:16.223Z,20.2094
2023-05-05T07:40:17.279Z,20.4326
2023-05-05T07:41:18.299Z,20.4137
2023-05-05T07:42:19.316Z,20.0705
2023-05-05T07:43:20.318Z,19.7576
2023-05-05T07:44:21.459Z,19.8381
2023-05-05T07:45:22.424Z,19.6093
2023-05-05T07:46:23.467Z,19.5562
2023-05-05T07:47:24.542Z,19.6233
2023-05-05T07:48:25.566Z,19.8647
2023-05-05T07:49:26.569Z,19.8880
2023-05-05T07:50:27.627Z,19.6876
2023-05-05T07:51:28.594Z,19.5733
2023-05-05T07:52:44.223Z,19.5997
2023-05-05T07:53:30.666Z,19.8254
2023-05-05T07:54:31.799Z,19.9514
2023-05-05T07:55:32.752Z,19.9466
2023-05-05T07:56:33.856Z,19.6332
2023-05-05T07:57:34.796Z,19.6882
2023-05-05T07:58:35.865Z,19.9190
2023-05-05T07:59:36.914Z,20.1708
2023-05-05T08:00:37.981Z,20.4151
2023-05-05T08:01:38.930Z,20.3224
2023-05-05T08:02:40.067Z,20.2998
2023-05-05T08:03:41.076Z,20.3336
2023-05-05T08:04:42.306Z,20.3642
2023-05-05T08:05:43.187Z,20.4527
2023-05-05T08:06:44.194Z,20.4981
2023-05-05T08:07:45.189Z,20.4766
2023-05-05T08:08:46.166Z,20.3401
2023-05-05T08:09:47.285Z,20.1187
2023-05-05T08:10:48.318Z,20.0883
2023-05-05T08:11:49.365Z,20.0200
2023-05-05T08:12:50.322Z,19.9923
2023-05-05T08:13:51.447Z,19.9133
2023-05-05T08:14:52.418Z,20.0734
2023-05-05T08:15:53.542Z,19.9593
2023-05-05T08:16:54.472Z,19.9209
2023-05-05T08:17:55.582Z,19.7576
2023-05-05T08:18:56.539Z,19.6875
2023-05-05T08:19:57.620Z,19.7887
2023-05-05T08:20:58.652Z,19.8890
2023-05-05T08:22:01.374Z,19.9378
2023-05-05T08:23:00.686Z,20.0466
2023-05-05T08:24:01.732Z,19.8947
2023-05-05T08:25:02.782Z,19.8505
2023-05-05T08:26:03.887Z,19.8885
2023-05-05T08:27:04.872Z,19.7871
2023-05-05T08:28:05.866Z,19.8428
2023-05-05T08:29:06.872Z,19.9305
2023-05-05T08:30:07.981Z,20.0932
2023-05-05T08:31:09.011Z,20.4124
2023-05-05T08:32:10.020Z,20.5367
2023-05-05T08:33:11.094Z,20.3327
2023-05-05T08:34:12.088Z,20.3033
2023-05-05T08:35:13.359Z,20.0298
2023-05-05T08:36:14.185Z,20.1814
2023-05-05T08:37:15.206Z,20.4799
2023-05-05T08:38:16.223Z,20.6736
2023-05-05T08:39:17.316Z,20.6515
2023-05-05T08:40:18.321Z,20.8738
2023-05-05T08:41:19.345Z,21.0844
2023-05-05T08:42:35.605Z,21.1418
2023-05-05T08:43:21.331Z,21.0988
2023-05-05T08:44:22.401Z,21.1537
2023-05-05T08:45:23.481Z,21.0294
2023-05-05T08:46:24.523Z,20.6791
2023-05-05T08:47:25.527Z,20.4024
2023-05-05T08:48:26.596Z,20.1950
2023-05-05T08:49:27.536Z,20.0882
2023-05-05T08:50:28.647Z,20.0428
2023-05-05T08:51:29.674Z,20.0608
2023-05-05T08:52:30.741Z,20.1088
2023-05-05T08:53:31.716Z,20.0954
2023-05-05T08:54:32.738Z,20.0060
2023-05-05T08:55:33.794Z,19.8532
2023-05-05T08:56:34.847Z,20.0076
2023-05-05T08:57:35.917Z,20.0989
2023-05-05T08:58:36.910Z,20.2207
2023-05-05T08:59:37.908Z,20.3331
2023-05-05T09:00:39.028Z,20.4211
2023-05-05T09:01:40.042Z,20.6437
2023-05-05T09:02:41.105Z,20.8774
2023-05-05T09:03:42.311Z,21.0221
2023-05-05T09:04:43.093Z,21.0866
2023-05-05T09:05:44.151Z,21.0165
2023-05-05T09:06:45.234Z,20.9532
2023-05-05T09:07:46.233Z,21.0779
2023-05-05T09:08:47.235Z,21.1310
2023-05-05T09:09:48.246Z,21.1297
2023-05-05T09:10:49.435Z,21.0453
2023-05-05T09:11:50.447Z,21.0538
2023-05-05T09:12:51.702Z,20.7190
2023-05-05T09:13:52.469Z,20.3660
2023-05-05T09:14:53.552Z,20.0085
2023-05-05T09:15:54.565Z,19.8485
2023-05-05T09:16:55.601Z,19.8016
2023-05-05T09:17:56.636Z,19.7886
2023-05-05T09:18:57.654Z,19.9947
2023-05-05T09:19:58.672Z,20.0654
2023-05-05T09:20:59.826Z,20.2000
2023-05-05T09:22:00.804Z,20.3564
2023-05-05T09:23:01.790Z,20.2728
2023-05-05T09:24:07.824Z,20.0539
2023-05-05T09:25:03.902Z,20.0195
2023-05-05T09:26:04.954Z,19.9413
2023-05-05T09:27:05.976Z,19.9654
2023-05-05T09:28:07.008Z,20.1290
2023-05-05T09:29:08.006Z,20.2526
2023-05-05T09:30:09.037Z,20.2941
2023-05-05T09:31:10.149Z,20.4439
2023-05-05T09:32:11.241Z,20.4241
2023-05-05T09:33:12.177Z,20.4679
2023-05-05T09:34:13.185Z,20.6447
2023-05-05T09:35:14.253Z,20.7853
2023-05-05T09:36:15.280Z,20.9315
2023-05-05T09:37:16.285Z,21.1299
2023-05-05T09:38:17.338Z,21.3668
2023-05-05T09:39:18.346Z,21.3806
2023-05-05T09:40:19.533Z,21.2920
2023-05-05T09:41:20.441Z,21.3105
2023-05-05T09:42:21.540Z,21.3677
2023-05-05T09:43:22.496Z,21.4212
2023-05-05T09:44:23.497Z,21.3281
2023-05-05T09:45:24.516Z,21.3641
2023-05-05T09:46:25.726Z,21.4750
2023-05-05T09:47:29.904Z,21.3193
2023-05-05T09:48:27.736Z,21.0975
2023-05-05T09:49:28.653Z,21.0618
2023-05-05T09:50:29.730Z,21.0615
2023-05-05T09:51:30.753Z,21.0391
2023-05-05T09:52:31.831Z,20.9839
2023-05-05T09:53:32.797Z,20.8796
2023-05-05T09:54:33.835Z,20.7431
2023-05-05T09:55:34.826Z,20.7688
2023-05-05T09:56:35.966Z,20.9432
2023-05-05T09:57:37.011Z,21.2471
2023-05-05T09:58:38.077Z,21.5134
2023-05-05T09:59:38.986Z,21.4830
2023-05-05T10:00:40.009Z,21.2115
2023-05-05T10:01:41.115Z,20.8796
2023-05-05T10:02:42.242Z,20.7006
2023-05-05T10:03:43.105Z,20.6896
2023-05-05T10:04:44.158Z,20.8822
2023-05-05T10:05:45.157Z,21.0671
2023-05-05T10:06:46.263Z,21.0602
2023-05-05T10:07:47.321Z,21.0160
2023-05-05T10:08:48.285Z,21.1561
2023-05-05T10:09:49.329Z,21.3822
2023-05-05T10:10:50.326Z,21.5092
2023-05-05T10:11:51.442Z,21.5119
2023-05-05T10:12:52.496Z,21.5298
2023-05-05T10:13:53.479Z,21.5934
2023-05-05T10:14:54.434Z,21.7934
2023-05-05T10:15:55.518Z,21.8921
2023-05-05T10:16:56.593Z,21.9460
2023-05-05T10:18:06.893Z,22.0805
2023-05-05T10:18:58.591Z,22.2518
2023-05-05T10:19:59.640Z,22.5785
2023-05-05T10:21:00.662Z,22.5468
2023-05-05T10:22:01.740Z,22.5056
2023-05-05T10:23:02.715Z,22.5556
2023-05-05T10:24:03.661Z,22.5995
2023-05-05T10:25:04.724Z,22.3867
2023-05-05T10:26:05.725Z,22.1539
2023-05-05T10:27:06.808Z,22.0442
2023-05-05T10:28:07.843Z,22.0480
2023-05-05T10:29:08.868Z,22.2100
2023-05-05T10:30:10.110Z,22.1940
2023-05-05T10:31:24.587Z,21.9451
2023-05-05T10:32:33.545Z,21.8997
2023-05-05T10:33:30.212Z,21.7792
2023-05-05T10:34:14.107Z,21.7311
2023-05-05T10:35:15.074Z,21.5521
2023-05-05T10:36:16.136Z,21.3819
2023-05-05T10:37:17.125Z,21.1457
2023-05-05T10:38:18.160Z,21.1180
2023-05-05T10:39:19.336Z,21.2280
2023-05-05T10:40:20.377Z,21.2182
2023-05-05T10:41:21.334Z,21.3359
2023-05-05T10:42:22.424Z,21.4708
2023-05-05T10:43:23.540Z,21.4307
2023-05-05T10:44:24.572Z,21.4009
2023-05-05T10:45:25.627Z,21.5097
2023-05-05T10:46:26.770Z,21.6106
2023-05-05T10:47:27.590Z,21.4437
2023-05-05T10:48:28.700Z,21.2516
2023-05-05T10:49:29.734Z,21.0467
2023-05-05T10:50:30.780Z,20.9036
2023-05-05T10:51:40.459Z,20.8159
2023-05-05T10:52:32.789Z,20.7746
2023-05-05T10:53:33.825Z,20.8379
2023-05-05T10:54:37.173Z,21.0061
2023-05-05T10:55:35.879Z,21.2859
2023-05-05T10:56:36.940Z,21.4068
2023-05-05T10:57:37.976Z,21.4927
2023-05-05T10:58:47.477Z,21.5938
2023-05-05T10:59:40.181Z,21.8114
2023-05-05T11:00:41.077Z,21.9286
2023-05-05T11:01:42.145Z,21.9373
2023-05-05T11:02:43.212Z,21.8039
2023-05-05T11:03:44.206Z,21.6778
2023-05-05T11:04:45.237Z,21.6889
2023-05-05T11:05:46.195Z,21.7311
2023-05-05T11:06:47.300Z,21.6668
2023-05-05T11:07:48.282Z,21.6633
2023-05-05T11:08:49.354Z,21.5541
2023-05-05T11:09:50.479Z,21.3040
2023-05-05T11:10:51.420Z,21.1998
2023-05-05T11:11:52.446Z,21.3538
2023-05-05T11:12:53.521Z,21.4931
2023-05-05T11:13:54.530Z,21.5228
2023-05-05T11:14:55.621Z,21.6393
2023-05-05T11:15:56.536Z,21.7149
2023-05-05T11:16:57.640Z,21.7493
2023-05-05T11:17:58.675Z,21.8648
2023-05-05T11:18:59.747Z,22.0087
2023-05-05T11:20:00.753Z,22.1478
2023-05-05T11:21:01.798Z,22.1774
2023-05-05T11:22:02.772Z,22.1761
2023-05-05T11:23:03.829Z,22.2009
2023-05-05T11:24:04.884Z,22.2889
2023-05-05T11:25:05.917Z,22.4005
2023-05-05T11:26:06.969Z,22.5090
2023-05-05T11:27:07.891Z,22.5558
2023-05-05T11:28:09.065Z,22.3980
2023-05-05T11:29:10.046Z,22.3587
2023-05-05T11:30:11.343Z,22.3395
2023-05-05T11:31:12.077Z,22.4173
2023-05-05T11:32:13.106Z,22.4145
2023-05-05T11:33:14.091Z,22.4138
2023-05-05T11:34:15.193Z,22.3415
2023-05-05T11:35:16.242Z,22.3269
2023-05-05T11:36:17.294Z,22.3574
2023-05-05T11:37:18.235Z,22.2297
2023-05-05T11:38:19.302Z,22.0554
2023-05-05T11:39:20.340Z,21.8902
2023-05-05T11:40:21.399Z,21.8053
2023-05-05T11:41:22.360Z,21.9639
2023-05-05T11:42:23.434Z,22.0367
2023-05-05T11:43:24.476Z,22.1532
2023-05-05T11:44:25.526Z,22.2330
2023-05-05T11:45:26.669Z,22.1508
2023-05-05T11:46:27.593Z,22.0442
2023-05-05T11:47:28.602Z,22.1482
2023-05-05T11:48:29.632Z,22.2336
2023-05-05T11:49:30.720Z,22.3246
2023-05-05T11:50:31.715Z,22.4376
2023-05-05T11:51:32.688Z,22.4640
2023-05-05T11:52:33.768Z,22.5439
2023-05-05T11:53:34.781Z,22.6511
2023-05-05T11:54:35.856Z,22.6779
2023-05-05T11:55:36.907Z,22.7162
2023-05-05T11:56:37.868Z,22.8551
2023-05-05T11:57:38.859Z,22.9934
2023-05-05T11:58:39.925Z,23.0548
2023-05-05T11:59:40.979Z,23.0366
2023-05-05T12:00:42.034Z,23.1119
2023-05-05T12:01:43.006Z,23.1142
2023-05-05T12:02:44.192Z,22.9380
2023-05-05T12:03:45.289Z,22.8085
2023-05-05T12:04:46.197Z,22.8742
2023-05-05T12:05:47.156Z,23.0550
2023-05-05T12:06:48.166Z,23.2842
2023-05-05T12:07:49.215Z,23.2914
2023-05-05T12:08:50.277Z,23.2775
2023-05-05T12:09:51.352Z,23.2212
2023-05-05T12:10:52.356Z,23.1891
2023-05-05T12:11:53.337Z,23.1305
2023-05-05T12:12:55.521Z,23.0958
2023-05-05T12:13:55.379Z,23.0691
2023-05-05T12:14:56.452Z,22.9616
2023-05-05T12:15:57.643Z,22.7620
2023-05-05T12:16:58.610Z,22.6705
2023-05-05T12:18:02.111Z,22.8671